Terminal Aerodrome Forecast
Issued by NWS

Home | Current Version | Previous Version | Text Only | Print | Product List | Glossary On
Versions: 1 2 3 4 5 6 7 8 9 10 11 12 13 14 15 16 17 18
000
FTUS46 KLOX 031122
TAFPMD
TAF
KPMD 031122Z 0312/0412 21008KT P6SM SKC
     FM031400 VRB03KT P6SM SCT200
     FM032200 24012KT P6SM SCT200
     FM040400 21007KT P6SM SCT200=

USA.gov is the U.S. government's official web portal to all federal, state and local government web resources and services.